sensor_id;sensor_type;location;lat;lon;timestamp;temperature;humidity
16477;DHT22;8349;50.928;6.376;2022-09-01T00:01:51;17.30;99.90
16477;DHT22;8349;50.928;6.376;2022-09-01T00:04:19;17.30;99.90
16477;DHT22;8349;50.928;6.376;2022-09-01T00:06:46;17.30;99.90
16477;DHT22;8349;50.928;6.376;2022-09-01T00:09:14;17.30;99.90
16477;DHT22;8349;50.928;6.376;2022-09-01T00:11:43;17.30;99.90
16477;DHT22;8349;50.928;6.376;2022-09-01T00:14:10;17.20;99.90
16477;DHT22;8349;50.928;6.376;2022-09-01T00:16:38;17.20;99.90
16477;DHT22;8349;50.928;6.376;2022-09-01T00:19:05;17.20;99.90
16477;DHT22;8349;50.928;6.376;2022-09-01T00:21:33;17.20;99.90
16477;DHT22;8349;50.928;6.376;2022-09-01T00:24:00;17.20;99.90
16477;DHT22;8349;50.928;6.376;2022-09-01T00:26:27;17.30;99.90
16477;DHT22;8349;50.928;6.376;2022-09-01T00:28:54;17.30;99.90
16477;DHT22;8349;50.928;6.376;2022-09-01T00:31:21;17.30;99.90
16477;DHT22;8349;50.928;6.376;2022-09-01T00:33:49;17.30;99.90
16477;DHT22;8349;50.928;6.376;2022-09-01T00:36:17;17.30;99.90
16477;DHT22;8349;50.928;6.376;2022-09-01T00:38:44;17.30;99.90
16477;DHT22;8349;50.928;6.376;2022-09-01T00:41:11;17.30;99.90
16477;DHT22;8349;50.928;6.376;2022-09-01T00:43:39;17.20;99.90
16477;DHT22;8349;50.928;6.376;2022-09-01T00:46:07;17.20;99.90
16477;DHT22;8349;50.928;6.376;2022-09-01T00:48:34;17.20;99.90
16477;DHT22;8349;50.928;6.376;2022-09-01T00:51:03;17.20;99.90
16477;DHT22;8349;50.928;6.376;2022-09-01T00:53:31;17.20;99.90
16477;DHT22;8349;50.928;6.376;2022-09-01T00:55:58;17.20;99.90
16477;DHT22;8349;50.928;6.376;2022-09-01T00:58:25;17.20;99.90
16477;DHT22;8349;50.928;6.376;2022-09-01T01:00:52;17.20;99.90
16477;DHT22;8349;50.928;6.376;2022-09-01T01:03:19;17.20;99.90
16477;DHT22;8349;50.928;6.376;2022-09-01T01:05:46;17.10;99.90
16477;DHT22;8349;50.928;6.376;2022-09-01T01:08:19;17.00;99.90
16477;DHT22;8349;50.928;6.376;2022-09-01T01:10:52;17.00;99.90
16477;DHT22;8349;50.928;6.376;2022-09-01T01:13:19;17.00;99.90
16477;DHT22;8349;50.928;6.376;2022-09-01T01:15:46;17.00;99.90
16477;DHT22;8349;50.928;6.376;2022-09-01T01:18:13;17.00;99.90
16477;DHT22;8349;50.928;6.376;2022-09-01T01:20:40;17.00;99.90
16477;DHT22;8349;50.928;6.376;2022-09-01T01:23:27;16.90;99.90
16477;DHT22;8349;50.928;6.376;2022-09-01T01:25:58;17.00;99.90
16477;DHT22;8349;50.928;6.376;2022-09-01T01:28:28;17.00;99.90
16477;DHT22;8349;50.928;6.376;2022-09-01T01:30:57;17.00;99.90
16477;DHT22;8349;50.928;6.376;2022-09-01T01:33:27;16.90;99.90
16477;DHT22;8349;50.928;6.376;2022-09-01T01:35:55;16.90;99.90
16477;DHT22;8349;50.928;6.376;2022-09-01T01:38:24;16.80;99.90
16477;DHT22;8349;50.928;6.376;2022-09-01T01:40:52;16.80;99.90
16477;DHT22;8349;50.928;6.376;2022-09-01T01:43:23;16.70;99.90
16477;DHT22;8349;50.928;6.376;2022-09-01T01:45:53;16.60;99.90
16477;DHT22;8349;50.928;6.376;2022-09-01T01:48:25;16.60;99.90
16477;DHT22;8349;50.928;6.376;2022-09-01T01:50:53;16.50;99.90
16477;DHT22;8349;50.928;6.376;2022-09-01T01:53:22;16.50;99.90
16477;DHT22;8349;50.928;6.376;2022-09-01T01:55:51;16.50;99.90
16477;DHT22;8349;50.928;6.376;2022-09-01T01:58:19;16.50;99.90
16477;DHT22;8349;50.928;6.376;2022-09-01T02:00:48;16.40;99.90
16477;DHT22;8349;50.928;6.376;2022-09-01T02:03:16;16.40;99.90
16477;DHT22;8349;50.928;6.376;2022-09-01T02:05:43;16.40;99.90
16477;DHT22;8349;50.928;6.376;2022-09-01T02:08:11;16.30;99.90
16477;DHT22;8349;50.928;6.376;2022-09-01T02:10:40;16.20;99.90
16477;DHT22;8349;50.928;6.376;2022-09-01T02:13:09;16.20;99.90
16477;DHT22;8349;50.928;6.376;2022-09-01T02:15:41;16.20;99.90
16477;DHT22;8349;50.928;6.376;2022-09-01T02:18:10;16.20;99.90
16477;DHT22;8349;50.928;6.376;2022-09-01T02:20:38;16.20;99.90
16477;DHT22;8349;50.928;6.376;2022-09-01T02:23:05;16.20;99.90
16477;DHT22;8349;50.928;6.376;2022-09-01T02:25:36;16.20;99.90
16477;DHT22;8349;50.928;6.376;2022-09-01T02:28:04;16.20;99.90
16477;DHT22;8349;50.928;6.376;2022-09-01T02:30:34;16.20;99.90
16477;DHT22;8349;50.928;6.376;2022-09-01T02:33:02;16.10;99.90
16477;DHT22;8349;50.928;6.376;2022-09-01T02:35:31;16.10;99.90
16477;DHT22;8349;50.928;6.376;2022-09-01T02:37:58;16.10;99.90
16477;DHT22;8349;50.928;6.376;2022-09-01T02:40:26;16.10;99.90
16477;DHT22;8349;50.928;6.376;2022-09-01T02:42:55;16.10;99.90
16477;DHT22;8349;50.928;6.376;2022-09-01T02:45:24;16.10;99.90
16477;DHT22;8349;50.928;6.376;2022-09-01T02:47:51;16.10;99.90
16477;DHT22;8349;50.928;6.376;2022-09-01T02:50:18;16.10;99.90
16477;DHT22;8349;50.928;6.376;2022-09-01T02:52:48;16.10;99.90
16477;DHT22;8349;50.928;6.376;2022-09-01T02:55:16;16.10;99.90
16477;DHT22;8349;50.928;6.376;2022-09-01T02:57:45;16.10;99.90
16477;DHT22;8349;50.928;6.376;2022-09-01T03:00:13;16.10;99.90
16477;DHT22;8349;50.928;6.376;2022-09-01T03:02:48;16.00;99.90
16477;DHT22;8349;50.928;6.376;2022-09-01T03:05:15;16.00;99.90
16477;DHT22;8349;50.928;6.376;2022-09-01T03:07:54;15.90;99.90
16477;DHT22;8349;50.928;6.376;2022-09-01T03:10:23;15.90;99.90
16477;DHT22;8349;50.928;6.376;2022-09-01T03:13:00;15.90;99.90
16477;DHT22;8349;50.928;6.376;2022-09-01T03:15:27;15.90;99.90
16477;DHT22;8349;50.928;6.376;2022-09-01T03:17:54;15.80;99.90
16477;DHT22;8349;50.928;6.376;2022-09-01T03:20:24;15.70;99.90
16477;DHT22;8349;50.928;6.376;2022-09-01T03:22:50;15.70;99.90
16477;DHT22;8349;50.928;6.376;2022-09-01T03:25:21;15.70;99.90
16477;DHT22;8349;50.928;6.376;2022-09-01T03:27:49;15.70;99.90
16477;DHT22;8349;50.928;6.376;2022-09-01T03:30:17;15.60;99.90
16477;DHT22;8349;50.928;6.376;2022-09-01T03:32:44;15.50;99.90
16477;DHT22;8349;50.928;6.376;2022-09-01T03:35:12;15.50;99.90
16477;DHT22;8349;50.928;6.376;2022-09-01T03:37:39;15.40;99.90
16477;DHT22;8349;50.928;6.376;2022-09-01T03:40:10;15.40;99.90
16477;DHT22;8349;50.928;6.376;2022-09-01T03:42:39;15.40;99.90
16477;DHT22;8349;50.928;6.376;2022-09-01T03:45:06;15.40;99.90
16477;DHT22;8349;50.928;6.376;2022-09-01T03:47:34;15.40;99.90
16477;DHT22;8349;50.928;6.376;2022-09-01T03:50:06;15.40;99.90
16477;DHT22;8349;50.928;6.376;2022-09-01T03:52:35;15.30;99.90
16477;DHT22;8349;50.928;6.376;2022-09-01T03:55:03;15.30;99.90
16477;DHT22;8349;50.928;6.376;2022-09-01T03:57:30;15.30;99.90
16477;DHT22;8349;50.928;6.376;2022-09-01T04:00:00;15.30;99.90
16477;DHT22;8349;50.928;6.376;2022-09-01T04:02:27;15.30;99.90
16477;DHT22;8349;50.928;6.376;2022-09-01T04:04:55;15.20;99.90
16477;DHT22;8349;50.928;6.376;2022-09-01T04:07:24;15.00;99.90
16477;DHT22;8349;50.928;6.376;2022-09-01T04:09:52;15.00;99.90
16477;DHT22;8349;50.928;6.376;2022-09-01T04:12:19;15.00;99.90
16477;DHT22;8349;50.928;6.376;2022-09-01T04:14:50;15.00;99.90
16477;DHT22;8349;50.928;6.376;2022-09-01T04:17:19;14.90;99.90
16477;DHT22;8349;50.928;6.376;2022-09-01T04:20:04;14.90;99.90
16477;DHT22;8349;50.928;6.376;2022-09-01T04:22:33;14.90;99.90
16477;DHT22;8349;50.928;6.376;2022-09-01T04:25:00;14.80;99.90
16477;DHT22;8349;50.928;6.376;2022-09-01T04:27:27;14.70;99.90
16477;DHT22;8349;50.928;6.376;2022-09-01T04:29:54;14.60;99.90
16477;DHT22;8349;50.928;6.376;2022-09-01T04:32:23;14.60;99.90
16477;DHT22;8349;50.928;6.376;2022-09-01T04:34:56;14.60;99.90
16477;DHT22;8349;50.928;6.376;2022-09-01T04:37:23;14.50;99.90
16477;DHT22;8349;50.928;6.376;2022-09-01T04:39:55;14.50;99.90
16477;DHT22;8349;50.928;6.376;2022-09-01T04:42:24;14.50;99.90
16477;DHT22;8349;50.928;6.376;2022-09-01T04:44:52;14.50;99.90
16477;DHT22;8349;50.928;6.376;2022-09-01T04:47:19;14.40;99.90
16477;DHT22;8349;50.928;6.376;2022-09-01T04:49:57;14.40;99.90
16477;DHT22;8349;50.928;6.376;2022-09-01T04:52:25;14.40;99.90
16477;DHT22;8349;50.928;6.376;2022-09-01T04:54:52;14.40;99.90
16477;DHT22;8349;50.928;6.376;2022-09-01T04:57:20;14.40;99.90
16477;DHT22;8349;50.928;6.376;2022-09-01T04:59:47;14.30;99.90
16477;DHT22;8349;50.928;6.376;2022-09-01T05:02:14;14.30;99.90
16477;DHT22;8349;50.928;6.376;2022-09-01T05:04:41;14.20;99.90
16477;DHT22;8349;50.928;6.376;2022-09-01T05:07:13;14.20;99.90
16477;DHT22;8349;50.928;6.376;2022-09-01T05:09:42;14.20;99.90
16477;DHT22;8349;50.928;6.376;2022-09-01T05:12:29;14.30;99.90
16477;DHT22;8349;50.928;6.376;2022-09-01T05:14:56;14.20;99.90
16477;DHT22;8349;50.928;6.376;2022-09-01T05:17:23;14.30;99.90
16477;DHT22;8349;50.928;6.376;2022-09-01T05:19:53;14.40;99.90
16477;DHT22;8349;50.928;6.376;2022-09-01T05:22:22;14.40;99.90
16477;DHT22;8349;50.928;6.376;2022-09-01T05:24:54;14.40;99.90
16477;DHT22;8349;50.928;6.376;2022-09-01T05:27:21;14.40;99.90
16477;DHT22;8349;50.928;6.376;2022-09-01T05:29:48;14.40;99.90
16477;DHT22;8349;50.928;6.376;2022-09-01T05:32:15;14.50;99.90
16477;DHT22;8349;50.928;6.376;2022-09-01T05:34:41;14.60;99.90
16477;DHT22;8349;50.928;6.376;2022-09-01T05:37:09;14.60;99.90
16477;DHT22;8349;50.928;6.376;2022-09-01T05:39:38;14.60;99.90
16477;DHT22;8349;50.928;6.376;2022-09-01T05:42:05;14.70;99.90
16477;DHT22;8349;50.928;6.376;2022-09-01T05:44:34;14.80;99.90
16477;DHT22;8349;50.928;6.376;2022-09-01T05:47:02;14.90;99.90
16477;DHT22;8349;50.928;6.376;2022-09-01T05:49:30;14.90;99.90
16477;DHT22;8349;50.928;6.376;2022-09-01T05:52:01;15.00;99.90
16477;DHT22;8349;50.928;6.376;2022-09-01T05:54:29;15.10;99.90
16477;DHT22;8349;50.928;6.376;2022-09-01T05:56:58;15.10;99.90
16477;DHT22;8349;50.928;6.376;2022-09-01T05:59:26;15.20;99.90
16477;DHT22;8349;50.928;6.376;2022-09-01T06:02:05;15.20;99.90
16477;DHT22;8349;50.928;6.376;2022-09-01T06:04:34;15.30;99.90
16477;DHT22;8349;50.928;6.376;2022-09-01T06:07:10;15.30;99.90
16477;DHT22;8349;50.928;6.376;2022-09-01T06:09:41;15.40;99.90
16477;DHT22;8349;50.928;6.376;2022-09-01T06:12:11;15.50;99.90
16477;DHT22;8349;50.928;6.376;2022-09-01T06:14:42;15.60;99.90
16477;DHT22;8349;50.928;6.376;2022-09-01T06:17:09;15.80;99.90
16477;DHT22;8349;50.928;6.376;2022-09-01T06:19:41;15.90;99.90
16477;DHT22;8349;50.928;6.376;2022-09-01T06:22:08;16.00;99.90
16477;DHT22;8349;50.928;6.376;2022-09-01T06:24:35;16.00;99.90
16477;DHT22;8349;50.928;6.376;2022-09-01T06:27:04;16.20;99.90
16477;DHT22;8349;50.928;6.376;2022-09-01T06:29:33;16.20;99.90
16477;DHT22;8349;50.928;6.376;2022-09-01T06:32:00;16.30;99.90
16477;DHT22;8349;50.928;6.376;2022-09-01T06:34:27;16.40;99.90
16477;DHT22;8349;50.928;6.376;2022-09-01T06:36:54;16.50;99.90
16477;DHT22;8349;50.928;6.376;2022-09-01T06:39:21;16.60;99.90
16477;DHT22;8349;50.928;6.376;2022-09-01T06:41:52;16.70;99.90
16477;DHT22;8349;50.928;6.376;2022-09-01T06:44:23;16.80;99.90
16477;DHT22;8349;50.928;6.376;2022-09-01T06:47:01;16.90;99.90
16477;DHT22;8349;50.928;6.376;2022-09-01T06:49:29;17.00;99.90
16477;DHT22;8349;50.928;6.376;2022-09-01T06:52:00;17.10;99.90
16477;DHT22;8349;50.928;6.376;2022-09-01T06:54:28;17.30;99.90
16477;DHT22;8349;50.928;6.376;2022-09-01T06:56:58;17.40;99.90
16477;DHT22;8349;50.928;6.376;2022-09-01T06:59:28;17.50;99.90
16477;DHT22;8349;50.928;6.376;2022-09-01T07:01:56;17.70;99.90
16477;DHT22;8349;50.928;6.376;2022-09-01T07:04:31;17.70;99.90
16477;DHT22;8349;50.928;6.376;2022-09-01T07:07:02;17.80;99.90
16477;DHT22;8349;50.928;6.376;2022-09-01T07:09:50;17.90;99.90
16477;DHT22;8349;50.928;6.376;2022-09-01T07:12:36;18.00;99.90
16477;DHT22;8349;50.928;6.376;2022-09-01T07:15:06;18.10;99.90
16477;DHT22;8349;50.928;6.376;2022-09-01T07:17:33;18.20;99.90
16477;DHT22;8349;50.928;6.376;2022-09-01T07:20:01;18.30;99.90
16477;DHT22;8349;50.928;6.376;2022-09-01T07:22:29;18.50;99.90
16477;DHT22;8349;50.928;6.376;2022-09-01T07:24:55;18.60;99.90
16477;DHT22;8349;50.928;6.376;2022-09-01T07:27:42;18.70;99.90
16477;DHT22;8349;50.928;6.376;2022-09-01T07:30:16;18.80;99.90
16477;DHT22;8349;50.928;6.376;2022-09-01T07:32:43;18.90;99.90
16477;DHT22;8349;50.928;6.376;2022-09-01T07:35:13;19.00;99.90
16477;DHT22;8349;50.928;6.376;2022-09-01T07:37:41;19.00;99.90
16477;DHT22;8349;50.928;6.376;2022-09-01T07:40:09;19.10;99.90
16477;DHT22;8349;50.928;6.376;2022-09-01T07:42:59;19.20;99.90
16477;DHT22;8349;50.928;6.376;2022-09-01T07:45:46;19.30;99.90
16477;DHT22;8349;50.928;6.376;2022-09-01T07:48:16;19.30;99.90
16477;DHT22;8349;50.928;6.376;2022-09-01T07:50:49;19.40;99.90
16477;DHT22;8349;50.928;6.376;2022-09-01T07:53:18;19.40;99.90
16477;DHT22;8349;50.928;6.376;2022-09-01T07:55:47;19.40;99.90
16477;DHT22;8349;50.928;6.376;2022-09-01T07:58:15;19.40;99.90
16477;DHT22;8349;50.928;6.376;2022-09-01T08:00:45;19.30;99.90
16477;DHT22;8349;50.928;6.376;2022-09-01T08:03:16;19.30;99.90
16477;DHT22;8349;50.928;6.376;2022-09-01T08:05:43;19.30;99.90
16477;DHT22;8349;50.928;6.376;2022-09-01T08:08:13;19.40;99.90
16477;DHT22;8349;50.928;6.376;2022-09-01T08:10:40;19.40;99.90
16477;DHT22;8349;50.928;6.376;2022-09-01T08:13:08;19.50;99.90
16477;DHT22;8349;50.928;6.376;2022-09-01T08:15:36;19.50;99.90
16477;DHT22;8349;50.928;6.376;2022-09-01T08:18:03;19.50;99.90
16477;DHT22;8349;50.928;6.376;2022-09-01T08:20:32;19.70;99.90
16477;DHT22;8349;50.928;6.376;2022-09-01T08:23:18;19.70;99.90
16477;DHT22;8349;50.928;6.376;2022-09-01T08:25:46;19.80;99.90
16477;DHT22;8349;50.928;6.376;2022-09-01T08:28:13;19.70;99.90
16477;DHT22;8349;50.928;6.376;2022-09-01T08:30:44;19.80;99.90
16477;DHT22;8349;50.928;6.376;2022-09-01T08:33:13;19.90;99.90
16477;DHT22;8349;50.928;6.376;2022-09-01T08:35:45;20.00;99.90
16477;DHT22;8349;50.928;6.376;2022-09-01T08:38:12;20.00;99.90
16477;DHT22;8349;50.928;6.376;2022-09-01T08:40:41;20.10;99.90
16477;DHT22;8349;50.928;6.376;2022-09-01T08:43:12;20.10;99.90
16477;DHT22;8349;50.928;6.376;2022-09-01T08:45:41;20.20;99.90
16477;DHT22;8349;50.928;6.376;2022-09-01T08:48:12;20.30;99.90
16477;DHT22;8349;50.928;6.376;2022-09-01T08:50:40;20.40;99.90
16477;DHT22;8349;50.928;6.376;2022-09-01T08:53:21;20.50;99.90
16477;DHT22;8349;50.928;6.376;2022-09-01T08:55:53;20.60;99.90
16477;DHT22;8349;50.928;6.376;2022-09-01T08:58:21;20.60;99.90
16477;DHT22;8349;50.928;6.376;2022-09-01T09:01:19;20.70;99.90
16477;DHT22;8349;50.928;6.376;2022-09-01T09:03:58;20.80;99.90
16477;DHT22;8349;50.928;6.376;2022-09-01T09:06:27;20.90;99.90
16477;DHT22;8349;50.928;6.376;2022-09-01T09:08:59;21.00;99.90
16477;DHT22;8349;50.928;6.376;2022-09-01T09:14:18;21.00;99.90
16477;DHT22;8349;50.928;6.376;2022-09-01T09:16:49;21.00;99.90
16477;DHT22;8349;50.928;6.376;2022-09-01T09:19:18;21.10;99.90
16477;DHT22;8349;50.928;6.376;2022-09-01T09:21:48;21.10;99.90
16477;DHT22;8349;50.928;6.376;2022-09-01T09:24:18;21.30;99.90
16477;DHT22;8349;50.928;6.376;2022-09-01T09:26:47;21.40;99.90
16477;DHT22;8349;50.928;6.376;2022-09-01T09:29:14;21.50;99.90
16477;DHT22;8349;50.928;6.376;2022-09-01T09:31:42;21.50;99.90
16477;DHT22;8349;50.928;6.376;2022-09-01T09:34:28;21.60;99.90
16477;DHT22;8349;50.928;6.376;2022-09-01T09:36:59;21.70;99.90
16477;DHT22;8349;50.928;6.376;2022-09-01T09:39:26;21.90;99.90
16477;DHT22;8349;50.928;6.376;2022-09-01T09:42:01;22.00;99.90
16477;DHT22;8349;50.928;6.376;2022-09-01T09:44:29;22.10;99.90
16477;DHT22;8349;50.928;6.376;2022-09-01T09:46:58;22.20;99.90
16477;DHT22;8349;50.928;6.376;2022-09-01T09:49:26;22.30;99.90
16477;DHT22;8349;50.928;6.376;2022-09-01T09:51:54;22.40;99.90
16477;DHT22;8349;50.928;6.376;2022-09-01T09:54:22;22.50;99.90
16477;DHT22;8349;50.928;6.376;2022-09-01T09:57:01;22.60;99.90
16477;DHT22;8349;50.928;6.376;2022-09-01T09:59:29;22.60;99.90
16477;DHT22;8349;50.928;6.376;2022-09-01T10:01:58;22.70;99.90
16477;DHT22;8349;50.928;6.376;2022-09-01T10:04:33;22.80;99.90
16477;DHT22;8349;50.928;6.376;2022-09-01T10:07:00;22.80;99.90
16477;DHT22;8349;50.928;6.376;2022-09-01T10:09:34;22.90;99.90
16477;DHT22;8349;50.928;6.376;2022-09-01T10:12:01;23.00;99.90
16477;DHT22;8349;50.928;6.376;2022-09-01T10:14:29;23.10;99.90
16477;DHT22;8349;50.928;6.376;2022-09-01T10:16:59;23.30;99.90
16477;DHT22;8349;50.928;6.376;2022-09-01T10:19:26;23.40;99.90
16477;DHT22;8349;50.928;6.376;2022-09-01T10:21:55;23.50;99.90
16477;DHT22;8349;50.928;6.376;2022-09-01T10:24:23;23.70;99.90
16477;DHT22;8349;50.928;6.376;2022-09-01T10:26:52;23.90;99.90
16477;DHT22;8349;50.928;6.376;2022-09-01T10:29:19;23.90;99.90
16477;DHT22;8349;50.928;6.376;2022-09-01T10:31:47;23.90;99.90
16477;DHT22;8349;50.928;6.376;2022-09-01T10:34:16;23.90;99.90
16477;DHT22;8349;50.928;6.376;2022-09-01T10:36:44;23.90;99.90
16477;DHT22;8349;50.928;6.376;2022-09-01T10:39:12;24.00;99.90
16477;DHT22;8349;50.928;6.376;2022-09-01T10:41:46;24.20;99.90
16477;DHT22;8349;50.928;6.376;2022-09-01T10:44:17;24.40;99.90
16477;DHT22;8349;50.928;6.376;2022-09-01T10:46:44;24.50;99.90
16477;DHT22;8349;50.928;6.376;2022-09-01T10:49:12;24.70;99.90
16477;DHT22;8349;50.928;6.376;2022-09-01T10:51:45;24.90;99.90
16477;DHT22;8349;50.928;6.376;2022-09-01T10:56:58;25.30;99.90
16477;DHT22;8349;50.928;6.376;2022-09-01T10:59:26;25.40;99.90
16477;DHT22;8349;50.928;6.376;2022-09-01T11:02:04;25.40;99.90
16477;DHT22;8349;50.928;6.376;2022-09-01T11:07:30;25.40;99.90
16477;DHT22;8349;50.928;6.376;2022-09-01T11:10:14;25.60;99.90
16477;DHT22;8349;50.928;6.376;2022-09-01T11:12:49;25.80;99.90
16477;DHT22;8349;50.928;6.376;2022-09-01T11:15:32;26.00;99.90
16477;DHT22;8349;50.928;6.376;2022-09-01T11:18:00;26.20;99.90
16477;DHT22;8349;50.928;6.376;2022-09-01T11:20:27;26.60;99.90
16477;DHT22;8349;50.928;6.376;2022-09-01T11:23:00;26.80;99.90
16477;DHT22;8349;50.928;6.376;2022-09-01T11:25:33;26.70;99.90
16477;DHT22;8349;50.928;6.376;2022-09-01T11:28:03;26.60;99.90
16477;DHT22;8349;50.928;6.376;2022-09-01T11:30:32;29.00;99.90
16477;DHT22;8349;50.928;6.376;2022-09-01T11:33:01;33.30;99.90
16477;DHT22;8349;50.928;6.376;2022-09-01T11:35:31;35.90;99.60
16477;DHT22;8349;50.928;6.376;2022-09-01T11:38:01;37.40;96.50
16477;DHT22;8349;50.928;6.376;2022-09-01T11:40:29;37.80;94.90
16477;DHT22;8349;50.928;6.376;2022-09-01T11:42:57;39.60;94.10
16477;DHT22;8349;50.928;6.376;2022-09-01T11:45:26;40.60;93.20
16477;DHT22;8349;50.928;6.376;2022-09-01T11:47:56;36.70;92.00
16477;DHT22;8349;50.928;6.376;2022-09-01T11:50:24;36.40;93.10
16477;DHT22;8349;50.928;6.376;2022-09-01T11:52:52;37.10;93.00
16477;DHT22;8349;50.928;6.376;2022-09-01T11:55:28;38.90;92.40
16477;DHT22;8349;50.928;6.376;2022-09-01T11:57:56;39.10;91.20
16477;DHT22;8349;50.928;6.376;2022-09-01T12:00:26;39.90;91.40
16477;DHT22;8349;50.928;6.376;2022-09-01T12:02:53;40.30;90.70
16477;DHT22;8349;50.928;6.376;2022-09-01T12:05:23;41.60;90.60
16477;DHT22;8349;50.928;6.376;2022-09-01T12:07:49;42.00;89.90
16477;DHT22;8349;50.928;6.376;2022-09-01T12:10:18;42.20;90.20
16477;DHT22;8349;50.928;6.376;2022-09-01T12:12:47;42.00;88.00
16477;DHT22;8349;50.928;6.376;2022-09-01T12:15:17;39.80;87.10
16477;DHT22;8349;50.928;6.376;2022-09-01T12:17:44;36.90;89.40
16477;DHT22;8349;50.928;6.376;2022-09-01T12:20:17;35.10;90.00
16477;DHT22;8349;50.928;6.376;2022-09-01T12:22:44;33.80;90.20
16477;DHT22;8349;50.928;6.376;2022-09-01T12:25:16;36.30;91.40
16477;DHT22;8349;50.928;6.376;2022-09-01T12:27:43;34.90;90.40
16477;DHT22;8349;50.928;6.376;2022-09-01T12:30:12;33.40;90.90
16477;DHT22;8349;50.928;6.376;2022-09-01T12:32:39;32.00;91.60
16477;DHT22;8349;50.928;6.376;2022-09-01T12:35:12;30.60;92.50
16477;DHT22;8349;50.928;6.376;2022-09-01T12:37:42;29.80;93.20
16477;DHT22;8349;50.928;6.376;2022-09-01T12:40:20;29.80;94.00
16477;DHT22;8349;50.928;6.376;2022-09-01T12:42:48;29.10;93.90
16477;DHT22;8349;50.928;6.376;2022-09-01T12:45:34;28.30;94.20
16477;DHT22;8349;50.928;6.376;2022-09-01T12:48:01;27.90;94.50
16477;DHT22;8349;50.928;6.376;2022-09-01T12:50:33;28.50;94.40
16477;DHT22;8349;50.928;6.376;2022-09-01T12:53:00;29.70;93.60
16477;DHT22;8349;50.928;6.376;2022-09-01T12:55:28;32.10;92.50
16477;DHT22;8349;50.928;6.376;2022-09-01T12:57:56;32.80;92.30
16477;DHT22;8349;50.928;6.376;2022-09-01T13:00:25;32.40;92.00
16477;DHT22;8349;50.928;6.376;2022-09-01T13:03:04;31.80;92.40
16477;DHT22;8349;50.928;6.376;2022-09-01T13:05:31;31.10;92.90
16477;DHT22;8349;50.928;6.376;2022-09-01T13:07:59;30.30;93.00
16477;DHT22;8349;50.928;6.376;2022-09-01T13:10:34;29.60;93.50
16477;DHT22;8349;50.928;6.376;2022-09-01T13:13:02;29.20;93.90
16477;DHT22;8349;50.928;6.376;2022-09-01T13:15:31;29.00;94.10
16477;DHT22;8349;50.928;6.376;2022-09-01T13:17:58;30.10;94.30
16477;DHT22;8349;50.928;6.376;2022-09-01T13:20:25;30.60;94.00
16477;DHT22;8349;50.928;6.376;2022-09-01T13:22:51;31.80;93.90
16477;DHT22;8349;50.928;6.376;2022-09-01T13:25:19;32.10;92.90
16477;DHT22;8349;50.928;6.376;2022-09-01T13:27:46;31.80;93.00
16477;DHT22;8349;50.928;6.376;2022-09-01T13:30:14;31.30;92.30
16477;DHT22;8349;50.928;6.376;2022-09-01T13:32:43;30.50;92.60
16477;DHT22;8349;50.928;6.376;2022-09-01T13:35:10;30.00;93.60
16477;DHT22;8349;50.928;6.376;2022-09-01T13:37:37;31.20;93.50
16477;DHT22;8349;50.928;6.376;2022-09-01T13:40:05;31.80;93.30
16477;DHT22;8349;50.928;6.376;2022-09-01T13:42:33;32.10;92.30
16477;DHT22;8349;50.928;6.376;2022-09-01T13:44:59;31.50;93.10
16477;DHT22;8349;50.928;6.376;2022-09-01T13:47:26;31.40;93.10
16477;DHT22;8349;50.928;6.376;2022-09-01T13:49:55;32.60;92.50
16477;DHT22;8349;50.928;6.376;2022-09-01T13:52:22;32.60;92.70
16477;DHT22;8349;50.928;6.376;2022-09-01T13:54:49;32.40;92.20
16477;DHT22;8349;50.928;6.376;2022-09-01T13:57:15;32.00;92.80
16477;DHT22;8349;50.928;6.376;2022-09-01T13:59:42;31.80;92.40
16477;DHT22;8349;50.928;6.376;2022-09-01T14:02:09;33.10;93.00
16477;DHT22;8349;50.928;6.376;2022-09-01T14:04:36;35.10;92.20
16477;DHT22;8349;50.928;6.376;2022-09-01T14:07:04;36.00;91.60
16477;DHT22;8349;50.928;6.376;2022-09-01T14:09:31;37.60;91.00
16477;DHT22;8349;50.928;6.376;2022-09-01T14:11:58;38.60;91.00
16477;DHT22;8349;50.928;6.376;2022-09-01T14:14:25;39.60;90.60
16477;DHT22;8349;50.928;6.376;2022-09-01T14:16:52;39.40;89.30
16477;DHT22;8349;50.928;6.376;2022-09-01T14:19:18;39.40;90.00
16477;DHT22;8349;50.928;6.376;2022-09-01T14:21:45;39.30;85.90
16477;DHT22;8349;50.928;6.376;2022-09-01T14:24:15;37.90;88.70
16477;DHT22;8349;50.928;6.376;2022-09-01T14:26:45;36.40;88.60
16477;DHT22;8349;50.928;6.376;2022-09-01T14:29:12;35.70;90.60
16477;DHT22;8349;50.928;6.376;2022-09-01T14:31:39;35.10;90.10
16477;DHT22;8349;50.928;6.376;2022-09-01T14:34:08;35.40;90.50
16477;DHT22;8349;50.928;6.376;2022-09-01T14:36:36;36.30;90.00
16477;DHT22;8349;50.928;6.376;2022-09-01T14:39:03;35.90;89.70
16477;DHT22;8349;50.928;6.376;2022-09-01T14:41:32;35.90;90.60
16477;DHT22;8349;50.928;6.376;2022-09-01T14:43:58;36.70;89.70
16477;DHT22;8349;50.928;6.376;2022-09-01T14:46:27;37.70;89.20
16477;DHT22;8349;50.928;6.376;2022-09-01T14:48:54;37.60;88.40
16477;DHT22;8349;50.928;6.376;2022-09-01T14:51:22;37.90;88.30
16477;DHT22;8349;50.928;6.376;2022-09-01T14:53:50;38.40;88.40
16477;DHT22;8349;50.928;6.376;2022-09-01T14:56:16;39.10;87.80
16477;DHT22;8349;50.928;6.376;2022-09-01T14:58:45;39.40;87.40
16477;DHT22;8349;50.928;6.376;2022-09-01T15:01:13;39.30;86.70
16477;DHT22;8349;50.928;6.376;2022-09-01T15:03:40;39.10;87.90
16477;DHT22;8349;50.928;6.376;2022-09-01T15:06:10;39.50;87.00
16477;DHT22;8349;50.928;6.376;2022-09-01T15:08:37;39.10;87.30
16477;DHT22;8349;50.928;6.376;2022-09-01T15:11:06;39.60;88.60
16477;DHT22;8349;50.928;6.376;2022-09-01T15:13:33;40.40;88.20
16477;DHT22;8349;50.928;6.376;2022-09-01T15:16:02;40.60;86.60
16477;DHT22;8349;50.928;6.376;2022-09-01T15:18:29;40.30;86.20
16477;DHT22;8349;50.928;6.376;2022-09-01T15:20:55;39.80;85.70
16477;DHT22;8349;50.928;6.376;2022-09-01T15:23:23;39.10;86.00
16477;DHT22;8349;50.928;6.376;2022-09-01T15:25:51;38.10;86.10
16477;DHT22;8349;50.928;6.376;2022-09-01T15:28:18;37.90;88.00
16477;DHT22;8349;50.928;6.376;2022-09-01T15:30:45;37.50;87.20
16477;DHT22;8349;50.928;6.376;2022-09-01T15:33:14;37.80;87.20
16477;DHT22;8349;50.928;6.376;2022-09-01T15:35:41;37.80;87.50
16477;DHT22;8349;50.928;6.376;2022-09-01T15:38:08;36.90;88.40
16477;DHT22;8349;50.928;6.376;2022-09-01T15:40:37;36.20;88.00
16477;DHT22;8349;50.928;6.376;2022-09-01T15:43:04;35.90;88.50
16477;DHT22;8349;50.928;6.376;2022-09-01T15:45:31;35.10;89.70
16477;DHT22;8349;50.928;6.376;2022-09-01T15:47:58;33.90;89.70
16477;DHT22;8349;50.928;6.376;2022-09-01T15:50:26;32.50;90.10
16477;DHT22;8349;50.928;6.376;2022-09-01T15:52:54;31.40;90.70
16477;DHT22;8349;50.928;6.376;2022-09-01T15:55:24;31.00;91.00
16477;DHT22;8349;50.928;6.376;2022-09-01T15:57:51;30.60;91.70
16477;DHT22;8349;50.928;6.376;2022-09-01T16:00:19;30.30;91.90
16477;DHT22;8349;50.928;6.376;2022-09-01T16:02:47;30.10;91.90
16477;DHT22;8349;50.928;6.376;2022-09-01T16:05:14;29.90;92.20
16477;DHT22;8349;50.928;6.376;2022-09-01T16:07:43;29.70;92.60